Time;durP1;ratioP1;P1;durP2;ratioP2;P2;SDS_P1;SDS_P2;PMS_P1;PMS_P2;Temp;Humidity;BMP_temperature;BMP_pressure;BME280_temperature;BME280_humidity;BME280_pressure;Samples;Min_cycle;Max_cycle;Signal;HPM_P1;HPM_P2
2023/09/25 00:00:45;;;;;;;1.67;0.70;;;22.10;74.50;;;;;;6184838;23;20005;-80
2023/09/25 00:03:11;;;;;;;0.90;0.50;;;22.10;74.50;;;;;;6184566;23;20005;-80
2023/09/25 00:05:38;;;;;;;1.80;0.90;;;22.00;75.20;;;;;;6184932;23;20312;-80
2023/09/25 00:08:04;;;;;;;1.20;0.60;;;22.00;76.40;;;;;;6182053;23;20004;-80
2023/09/25 00:10:31;;;;;;;2.17;0.80;;;21.80;77.00;;;;;;6184233;23;20324;-80
2023/09/25 00:12:57;;;;;;;0.80;0.50;;;21.70;77.20;;;;;;6184230;23;20004;-81
2023/09/25 00:15:23;;;;;;;2.42;0.50;;;21.70;77.10;;;;;;6184467;23;20001;-81
2023/09/25 00:17:50;;;;;;;3.22;0.75;;;21.70;77.50;;;;;;6185047;23;20001;-81
2023/09/25 00:20:19;;;;;;;1.38;0.52;;;21.70;78.10;;;;;;6185984;23;20017;-81
2023/09/25 00:22:46;;;;;;;1.02;0.75;;;21.60;78.20;;;;;;6187293;23;20088;-80
2023/09/25 00:25:12;;;;;;;1.45;0.70;;;21.60;78.30;;;;;;6186419;23;20001;-81
2023/09/25 00:27:38;;;;;;;3.03;1.00;;;21.60;78.30;;;;;;6185156;23;20099;-81
2023/09/25 00:30:08;;;;;;;0.88;0.60;;;21.60;78.00;;;;;;6184753;23;20004;-80
2023/09/25 00:32:34;;;;;;;2.72;0.73;;;21.60;78.30;;;;;;6185991;23;20001;-80
2023/09/25 00:35:07;;;;;;;2.40;0.60;;;21.60;78.50;;;;;;6185111;23;20374;-81
2023/09/25 00:37:34;;;;;;;2.42;1.00;;;21.60;78.50;;;;;;6185832;23;20371;-81
2023/09/25 00:40:07;;;;;;;1.67;0.70;;;21.60;78.20;;;;;;6185244;23;20001;-81
2023/09/25 00:42:32;;;;;;;4.22;0.70;;;21.50;78.90;;;;;;6185165;23;20080;-81
2023/09/25 00:44:59;;;;;;;2.38;0.60;;;21.60;79.10;;;;;;6184757;23;20127;-80
2023/09/25 00:47:24;;;;;;;3.80;0.88;;;21.50;79.10;;;;;;6185637;23;20035;-81
2023/09/25 00:49:50;;;;;;;1.50;0.70;;;21.50;79.20;;;;;;6185653;23;20005;-82
2023/09/25 00:52:16;;;;;;;0.52;0.50;;;21.40;79.30;;;;;;6186123;23;20001;-81
2023/09/25 00:54:42;;;;;;;2.15;0.80;;;21.40;79.30;;;;;;6183704;23;20001;-81
2023/09/25 00:57:09;;;;;;;1.63;0.80;;;21.30;79.30;;;;;;6184974;23;20315;-82
2023/09/25 00:59:39;;;;;;;0.52;0.52;;;21.30;79.40;;;;;;6186789;23;20001;-82
2023/09/25 01:02:04;;;;;;;0.93;0.60;;;21.30;79.30;;;;;;6184478;23;20016;-81
2023/09/25 01:04:31;;;;;;;1.98;0.70;;;21.20;79.30;;;;;;6186214;23;20005;-81
2023/09/25 01:06:57;;;;;;;1.08;0.63;;;21.30;79.40;;;;;;6186416;23;20008;-81
2023/09/25 01:09:22;;;;;;;1.33;0.60;;;21.30;79.40;;;;;;6186444;23;19997;-81
2023/09/25 01:11:48;;;;;;;0.63;0.45;;;21.30;79.60;;;;;;6186764;23;20076;-82
2023/09/25 01:14:14;;;;;;;1.45;0.52;;;21.40;79.60;;;;;;6186283;23;20433;-81
2023/09/25 01:16:41;;;;;;;2.10;0.60;;;21.40;79.40;;;;;;6186758;23;20418;-82
2023/09/25 01:19:06;;;;;;;0.65;0.40;;;21.50;79.20;;;;;;6186520;23;20025;-82
2023/09/25 01:21:36;;;;;;;1.05;0.60;;;21.50;78.70;;;;;;6185948;23;20008;-81
2023/09/25 01:24:02;;;;;;;2.47;0.80;;;21.40;78.60;;;;;;6186802;23;20060;-81
2023/09/25 01:26:28;;;;;;;1.23;0.68;;;21.40;78.70;;;;;;6186148;23;20236;-82
2023/09/25 01:28:54;;;;;;;2.05;0.93;;;21.40;79.00;;;;;;6185579;23;20009;-81
2023/09/25 01:31:20;;;;;;;0.80;0.70;;;21.30;79.70;;;;;;6185837;23;20020;-81
2023/09/25 01:33:45;;;;;;;0.90;0.70;;;21.30;79.80;;;;;;6184163;23;20001;-82
2023/09/25 01:36:11;;;;;;;1.27;1.10;;;21.30;80.20;;;;;;6186074;23;20423;-81
2023/09/25 01:38:37;;;;;;;1.55;0.60;;;21.40;80.30;;;;;;6186214;23;20005;-81
2023/09/25 01:41:03;;;;;;;1.23;0.88;;;21.40;80.70;;;;;;6185833;23;20047;-80
2023/09/25 01:43:29;;;;;;;1.35;0.57;;;21.40;79.70;;;;;;6185536;23;20080;-80
2023/09/25 01:45:55;;;;;;;0.77;0.60;;;21.30;79.80;;;;;;6185446;23;20502;-81
2023/09/25 01:48:21;;;;;;;1.38;0.90;;;21.20;79.80;;;;;;6185434;23;20446;-81
2023/09/25 01:50:47;;;;;;;2.15;0.85;;;21.20;79.80;;;;;;6185421;23;20009;-81
2023/09/25 01:53:12;;;;;;;1.65;0.63;;;21.30;79.80;;;;;;6185914;23;20010;-81
2023/09/25 01:55:40;;;;;;;1.08;0.52;;;21.30;79.60;;;;;;6185517;23;20067;-80
2023/09/25 01:58:09;;;;;;;1.75;0.60;;;21.30;79.40;;;;;;6185526;23;20001;-80
2023/09/25 02:00:35;;;;;;;0.80;0.50;;;21.40;78.90;;;;;;6184358;23;20012;-80
2023/09/25 02:03:01;;;;;;;1.08;0.65;;;21.40;78.60;;;;;;6185430;23;20009;-80
2023/09/25 02:05:27;;;;;;;1.17;0.70;;;21.40;78.80;;;;;;6184887;23;20434;-81
2023/09/25 02:07:53;;;;;;;2.17;0.60;;;21.40;78.70;;;;;;6185647;23;20008;-80
2023/09/25 02:10:19;;;;;;;1.20;0.80;;;21.40;78.60;;;;;;6184658;23;20404;-80
2023/09/25 02:12:44;;;;;;;0.60;0.40;;;21.40;78.80;;;;;;6186080;23;20001;-79
2023/09/25 02:15:10;;;;;;;1.25;0.80;;;21.40;78.40;;;;;;6185159;23;19997;-79
2023/09/25 02:17:36;;;;;;;1.25;0.60;;;21.40;78.00;;;;;;6185407;23;20005;-79
2023/09/25 02:20:16;;;;;;;1.23;0.73;;;21.40;77.90;;;;;;6184923;23;20416;-78
2023/09/25 02:22:43;;;;;;;1.55;0.70;;;21.30;78.10;;;;;;6185520;23;20378;-78
2023/09/25 02:25:09;;;;;;;0.95;0.65;;;21.30;78.30;;;;;;6185222;23;20323;-79
2023/09/25 02:27:35;;;;;;;1.00;0.70;;;21.30;77.80;;;;;;6185188;23;20013;-79
2023/09/25 02:30:01;;;;;;;1.58;0.57;;;21.30;77.90;;;;;;6184974;23;20001;-79
2023/09/25 02:32:27;;;;;;;0.80;0.60;;;21.30;78.00;;;;;;6185427;23;20076;-80
2023/09/25 02:34:52;;;;;;;1.23;0.60;;;21.30;78.00;;;;;;6184830;23;20072;-79
2023/09/25 02:37:18;;;;;;;2.00;1.05;;;21.30;77.70;;;;;;6185643;23;20678;-80
2023/09/25 02:39:44;;;;;;;1.75;0.70;;;21.20;77.70;;;;;;6184914;23;19997;-80
2023/09/25 02:42:09;;;;;;;1.70;0.60;;;21.20;77.70;;;;;;6185022;23;20032;-79
2023/09/25 02:44:35;;;;;;;1.55;0.90;;;21.20;78.10;;;;;;6185072;23;20020;-79
2023/09/25 02:47:01;;;;;;;1.85;0.90;;;21.10;77.90;;;;;;6184862;23;20063;-80
2023/09/25 02:49:27;;;;;;;1.52;0.88;;;21.10;77.80;;;;;;6184639;23;20011;-80
2023/09/25 02:51:52;;;;;;;2.90;1.05;;;21.00;78.00;;;;;;6184802;23;20612;-82
2023/09/25 02:54:18;;;;;;;0.90;0.50;;;21.00;78.20;;;;;;6185205;23;20001;-82
2023/09/25 02:56:46;;;;;;;1.20;0.57;;;21.00;78.50;;;;;;6184843;23;20319;-82
2023/09/25 02:59:11;;;;;;;2.60;0.68;;;20.90;78.60;;;;;;6184268;23;20001;-82
2023/09/25 03:01:37;;;;;;;1.42;0.70;;;21.00;79.20;;;;;;6184677;23;20076;-82
2023/09/25 03:04:03;;;;;;;0.85;0.70;;;20.90;79.50;;;;;;6185312;23;20008;-82
2023/09/25 03:06:29;;;;;;;1.40;0.70;;;20.90;79.50;;;;;;6185302;23;20056;-82
2023/09/25 03:08:54;;;;;;;0.98;0.68;;;20.90;79.60;;;;;;6185141;23;20316;-82
2023/09/25 03:11:20;;;;;;;1.02;0.50;;;20.90;79.60;;;;;;6185190;23;20001;-82
2023/09/25 03:13:46;;;;;;;3.03;0.88;;;20.90;79.60;;;;;;6184290;23;20008;-82
2023/09/25 03:16:15;;;;;;;0.98;0.70;;;20.80;79.60;;;;;;6185674;23;20002;-82
2023/09/25 03:18:42;;;;;;;2.42;0.85;;;20.80;80.10;;;;;;6185342;23;20019;-82
2023/09/25 03:21:10;;;;;;;0.98;0.60;;;20.80;80.50;;;;;;6184799;23;20001;-82
2023/09/25 03:23:36;;;;;;;1.15;0.63;;;20.80;80.60;;;;;;6185231;23;20392;-80
2023/09/25 03:26:02;;;;;;;2.45;0.88;;;20.80;80.70;;;;;;6184856;23;20008;-80
2023/09/25 03:28:27;;;;;;;1.60;0.60;;;20.80;80.90;;;;;;6185060;23;20428;-80
2023/09/25 03:30:53;;;;;;;1.05;0.80;;;20.80;81.00;;;;;;6184326;23;20076;-81
2023/09/25 03:33:21;;;;;;;2.72;0.80;;;20.80;81.00;;;;;;6185282;23;20001;-81
2023/09/25 03:35:47;;;;;;;1.15;0.70;;;20.70;80.70;;;;;;6184668;23;19997;-80
2023/09/25 03:38:12;;;;;;;0.57;0.57;;;20.70;80.60;;;;;;6185080;23;20000;-80
2023/09/25 03:40:38;;;;;;;1.67;0.80;;;20.70;80.90;;;;;;6183776;23;20083;-80
2023/09/25 03:43:04;;;;;;;1.35;0.90;;;20.70;80.80;;;;;;6184633;23;20068;-80
2023/09/25 03:45:30;;;;;;;1.52;1.00;;;20.70;81.10;;;;;;6184630;23;20101;-79
2023/09/25 03:47:56;;;;;;;1.25;0.60;;;20.70;80.60;;;;;;6184886;23;20468;-80
2023/09/25 03:50:21;;;;;;;1.23;0.82;;;20.60;80.50;;;;;;6182890;23;20317;-80
2023/09/25 03:52:47;;;;;;;2.30;0.95;;;20.60;80.80;;;;;;6184571;23;20001;-80
2023/09/25 03:55:13;;;;;;;0.90;0.75;;;20.50;80.90;;;;;;6184344;23;20001;-80
2023/09/25 03:57:38;;;;;;;4.47;1.00;;;20.50;81.50;;;;;;6184866;23;20008;-80
2023/09/25 04:00:06;;;;;;;1.98;1.00;;;20.40;81.70;;;;;;6183404;23;20327;-80
2023/09/25 04:02:32;;;;;;;1.60;0.80;;;20.40;82.00;;;;;;6184685;23;20442;-80
2023/09/25 04:04:58;;;;;;;1.52;0.80;;;20.40;82.30;;;;;;6184460;23;20033;-80
2023/09/25 04:07:23;;;;;;;1.73;1.05;;;20.40;82.70;;;;;;6184965;23;20024;-80
2023/09/25 04:09:49;;;;;;;1.55;0.75;;;20.40;83.00;;;;;;6184619;23;20311;-79
2023/09/25 04:12:15;;;;;;;2.67;0.60;;;20.40;83.10;;;;;;6184319;23;20005;-79
2023/09/25 04:14:41;;;;;;;0.93;0.77;;;20.40;83.40;;;;;;6184146;23;20072;-81
2023/09/25 04:17:10;;;;;;;2.15;0.88;;;20.40;83.60;;;;;;6184057;23;20363;-81
2023/09/25 04:19:36;;;;;;;1.30;0.73;;;20.40;83.80;;;;;;6183502;23;20029;-81
2023/09/25 04:22:06;;;;;;;1.45;0.90;;;20.40;84.40;;;;;;6183578;23;20363;-80
2023/09/25 04:24:35;;;;;;;2.05;1.00;;;20.40;84.40;;;;;;6184628;23;20335;-81
2023/09/25 04:27:02;;;;;;;1.88;1.10;;;20.30;84.70;;;;;;6184451;23;20036;-79
2023/09/25 04:29:28;;;;;;;2.17;1.00;;;20.30;85.30;;;;;;6183472;23;20017;-80
2023/09/25 04:31:54;;;;;;;1.27;0.88;;;20.20;85.40;;;;;;6184417;23;20011;-80
2023/09/25 04:34:20;;;;;;;1.67;0.88;;;20.20;85.50;;;;;;6184462;23;20004;-79
2023/09/25 04:36:48;;;;;;;2.58;1.02;;;20.10;86.10;;;;;;6185220;23;20439;-80
2023/09/25 04:39:16;;;;;;;4.18;1.20;;;20.00;86.50;;;;;;6184302;23;20044;-79
2023/09/25 04:41:43;;;;;;;2.65;1.30;;;20.00;86.60;;;;;;6183923;23;20083;-81
2023/09/25 04:44:09;;;;;;;2.15;1.30;;;20.00;87.20;;;;;;6183201;23;20005;-81
2023/09/25 04:46:35;;;;;;;1.80;1.13;;;19.90;87.80;;;;;;6185064;23;20044;-82
2023/09/25 04:49:01;;;;;;;1.77;1.30;;;19.80;88.40;;;;;;6183300;23;20009;-80
2023/09/25 04:51:26;;;;;;;3.28;1.65;;;19.80;88.20;;;;;;6184490;23;20060;-82
2023/09/25 04:53:52;;;;;;;3.90;1.50;;;19.70;88.70;;;;;;6184228;23;20285;-82
2023/09/25 04:56:20;;;;;;;4.50;1.63;;;19.80;88.90;;;;;;6184384;23;20007;-81
2023/09/25 04:58:47;;;;;;;2.00;1.40;;;19.80;89.10;;;;;;6184269;23;20001;-81
2023/09/25 05:01:12;;;;;;;3.08;1.67;;;19.80;89.50;;;;;;6183539;23;20005;-81
2023/09/25 05:03:40;;;;;;;2.85;1.80;;;19.70;89.80;;;;;;6184056;23;20019;-81
2023/09/25 05:06:07;;;;;;;4.90;2.25;;;19.70;90.20;;;;;;6186325;23;20416;-80
2023/09/25 05:08:32;;;;;;;3.53;1.95;;;19.60;90.40;;;;;;6186583;23;20076;-81
2023/09/25 05:10:58;;;;;;;6.03;2.70;;;19.60;90.60;;;;;;6185671;23;20353;-81
2023/09/25 05:13:24;;;;;;;3.47;2.47;;;19.50;90.60;;;;;;6185559;23;20025;-80
2023/09/25 05:15:50;;;;;;;2.72;2.13;;;19.50;90.60;;;;;;6186077;23;20313;-83
2023/09/25 05:18:15;;;;;;;4.63;2.42;;;19.50;90.70;;;;;;6186975;23;20005;-82
2023/09/25 05:20:41;;;;;;;2.58;1.80;;;19.50;90.70;;;;;;6185579;23;20005;-82
2023/09/25 05:23:07;;;;;;;4.28;2.05;;;19.40;91.00;;;;;;6186391;23;20080;-76
2023/09/25 05:25:32;;;;;;;3.03;2.20;;;19.40;90.90;;;;;;6185805;23;20001;-76
2023/09/25 05:27:58;;;;;;;2.88;1.98;;;19.40;91.00;;;;;;6185895;23;20063;-76
2023/09/25 05:30:24;;;;;;;2.72;1.80;;;19.40;91.00;;;;;;6185324;23;20008;-76
2023/09/25 05:32:51;;;;;;;2.28;1.83;;;19.40;91.10;;;;;;6186166;23;20431;-76
2023/09/25 05:35:19;;;;;;;2.40;1.80;;;19.40;91.10;;;;;;6184093;23;20005;-76
2023/09/25 05:37:45;;;;;;;3.13;2.10;;;19.40;91.10;;;;;;6185310;23;20047;-75
2023/09/25 05:40:12;;;;;;;5.97;2.10;;;19.40;91.00;;;;;;6184147;23;20000;-75
2023/09/25 05:42:39;;;;;;;2.78;2.00;;;19.40;91.10;;;;;;6184512;23;20409;-75
2023/09/25 05:45:06;;;;;;;5.63;2.20;;;19.40;91.20;;;;;;6182843;23;20001;-75
2023/09/25 05:47:32;;;;;;;3.13;1.80;;;19.40;91.20;;;;;;6182595;23;20008;-75
2023/09/25 05:49:58;;;;;;;4.15;1.73;;;19.30;91.30;;;;;;6185036;23;20005;-76
2023/09/25 05:52:24;;;;;;;1.92;1.60;;;19.30;91.40;;;;;;6184906;23;20025;-77
2023/09/25 05:54:51;;;;;;;3.42;2.05;;;19.30;91.40;;;;;;6184114;23;20502;-77
2023/09/25 05:57:16;;;;;;;4.97;2.42;;;19.30;91.30;;;;;;6184606;23;20005;-77
2023/09/25 05:59:43;;;;;;;2.95;2.03;;;19.30;91.30;;;;;;6184922;23;20001;-77
2023/09/25 06:02:08;;;;;;;2.78;1.77;;;19.30;91.30;;;;;;6184845;23;20032;-77
2023/09/25 06:04:38;;;;;;;4.30;2.10;;;19.40;91.30;;;;;;6185815;23;20404;-82
2023/09/25 06:07:05;;;;;;;3.03;2.28;;;19.40;91.20;;;;;;6186399;23;20031;-82
2023/09/25 06:09:35;;;;;;;3.30;1.90;;;19.40;91.40;;;;;;6186267;23;20035;-85
2023/09/25 06:12:01;;;;;;;4.60;2.13;;;19.40;91.30;;;;;;6184555;23;20001;-78
2023/09/25 06:14:30;;;;;;;3.33;1.85;;;19.40;91.40;;;;;;6184675;23;20001;-78
2023/09/25 06:16:58;;;;;;;2.90;1.73;;;19.30;91.40;;;;;;6184130;23;20055;-78
2023/09/25 06:19:25;;;;;;;2.58;1.88;;;19.40;91.40;;;;;;6185645;23;20005;-77
2023/09/25 06:21:51;;;;;;;3.70;1.90;;;19.40;91.30;;;;;;6185922;23;20005;-78
2023/09/25 06:24:17;;;;;;;5.75;1.77;;;19.50;91.20;;;;;;6182141;23;20005;-78
2023/09/25 06:26:46;;;;;;;2.38;1.88;;;19.50;91.10;;;;;;6185404;23;20001;-78
2023/09/25 06:29:13;;;;;;;2.97;1.80;;;19.60;91.10;;;;;;6185367;23;20009;-78
2023/09/25 06:31:39;;;;;;;4.57;1.75;;;19.60;90.90;;;;;;6185371;23;20009;-77
2023/09/25 06:34:07;;;;;;;2.85;1.30;;;19.70;90.90;;;;;;6178876;23;19997;-77
2023/09/25 06:36:36;;;;;;;2.60;1.55;;;19.70;90.80;;;;;;6184619;23;19998;-78
2023/09/25 06:39:08;;;;;;;3.53;1.70;;;19.80;90.70;;;;;;6183683;23;20001;-78
2023/09/25 06:41:35;;;;;;;1.63;1.30;;;19.80;90.70;;;;;;6183497;23;20012;-78
2023/09/25 06:44:01;;;;;;;1.73;1.02;;;19.80;90.50;;;;;;6184557;23;20328;-84
2023/09/25 06:46:27;;;;;;;3.75;1.25;;;19.90;90.30;;;;;;6187516;23;20033;-84
2023/09/25 06:48:53;;;;;;;1.92;1.13;;;19.90;90.20;;;;;;6185693;23;20008;-86
2023/09/25 06:51:23;;;;;;;2.50;1.38;;;19.90;90.00;;;;;;6184313;23;20407;-83
2023/09/25 06:53:49;;;;;;;2.13;1.08;;;19.90;89.40;;;;;;6184183;23;20005;-78
2023/09/25 06:56:18;;;;;;;1.20;0.95;;;19.90;89.20;;;;;;6184807;23;20016;-77
2023/09/25 06:58:43;;;;;;;3.42;1.10;;;19.90;88.60;;;;;;6186227;23;20435;-84
2023/09/25 07:01:09;;;;;;;1.65;0.70;;;20.00;89.00;;;;;;6186503;23;20001;-85
2023/09/25 07:03:35;;;;;;;2.42;1.10;;;20.10;88.10;;;;;;6186519;23;20009;-85
2023/09/25 07:06:02;;;;;;;2.13;1.00;;;20.10;87.80;;;;;;6186420;23;20375;-85
2023/09/25 07:08:28;;;;;;;4.97;1.85;;;20.20;87.40;;;;;;6185952;23;20039;-85
2023/09/25 07:10:54;;;;;;;3.30;1.00;;;20.30;86.60;;;;;;6186634;23;19997;-85
2023/09/25 07:13:20;;;;;;;2.20;0.80;;;20.30;84.40;;;;;;6184939;23;20028;-85
2023/09/25 07:15:47;;;;;;;1.55;0.88;;;20.30;85.50;;;;;;6186452;23;19997;-85
2023/09/25 07:18:13;;;;;;;2.63;1.05;;;20.30;84.90;;;;;;6186397;23;20004;-85
2023/09/25 07:20:39;;;;;;;1.38;1.05;;;20.30;85.40;;;;;;6185850;23;20016;-85
2023/09/25 07:23:06;;;;;;;5.13;1.30;;;20.40;85.80;;;;;;6186368;23;20005;-85
2023/09/25 07:25:33;;;;;;;2.08;1.10;;;20.50;85.00;;;;;;6186286;23;20001;-84
2023/09/25 07:27:58;;;;;;;3.22;1.55;;;20.50;84.80;;;;;;6186199;23;20064;-85
2023/09/25 07:30:24;;;;;;;3.30;1.00;;;20.60;84.40;;;;;;6186023;23;20001;-86
2023/09/25 07:32:50;;;;;;;3.17;1.05;;;20.60;84.40;;;;;;6185960;23;20041;-86
2023/09/25 07:35:16;;;;;;;5.50;1.05;;;20.60;83.60;;;;;;6184290;23;20077;-85
2023/09/25 07:37:42;;;;;;;1.73;1.00;;;20.60;83.90;;;;;;6185022;23;20002;-79
2023/09/25 07:40:13;;;;;;;2.38;1.25;;;20.60;84.00;;;;;;6185328;23;20020;-78
2023/09/25 07:42:40;;;;;;;2.28;0.85;;;20.60;84.00;;;;;;6185386;23;19997;-78
2023/09/25 07:45:11;;;;;;;2.13;0.98;;;20.70;83.70;;;;;;6185832;23;20441;-86
2023/09/25 07:47:38;;;;;;;1.40;0.70;;;20.70;82.80;;;;;;6182908;23;20009;-77
2023/09/25 07:50:11;;;;;;;5.18;1.15;;;20.80;82.80;;;;;;6184406;23;20002;-82
2023/09/25 07:52:38;;;;;;;2.15;1.13;;;20.80;81.50;;;;;;6185777;23;20293;-86
2023/09/25 07:55:11;;;;;;;3.72;0.73;;;20.80;82.00;;;;;;6185991;23;20412;-85
2023/09/25 07:57:42;;;;;;;1.23;0.70;;;20.80;82.00;;;;;;6186232;23;20029;-85
2023/09/25 08:00:21;;;;;;;3.00;0.77;;;20.80;82.20;;;;;;6186260;23;20012;-86
2023/09/25 08:02:48;;;;;;;1.83;0.90;;;20.80;81.40;;;;;;6186377;23;20001;-85
2023/09/25 08:05:21;;;;;;;3.25;1.13;;;20.70;81.30;;;;;;6186403;23;20005;-85
2023/09/25 08:07:49;;;;;;;3.08;1.02;;;20.70;81.70;;;;;;6185864;23;20424;-85
2023/09/25 08:10:17;;;;;;;2.38;1.30;;;20.60;81.60;;;;;;6186123;23;20007;-85
2023/09/25 08:12:44;;;;;;;2.42;1.20;;;20.70;82.40;;;;;;6185718;23;19997;-85
2023/09/25 08:15:10;;;;;;;2.75;1.02;;;20.60;81.80;;;;;;6185566;23;20044;-85
2023/09/25 08:17:44;;;;;;;1.77;1.17;;;20.60;81.90;;;;;;6185643;23;19997;-84
2023/09/25 08:20:18;;;;;;;2.50;1.00;;;20.60;82.00;;;;;;6182233;23;20005;-78
2023/09/25 08:22:44;;;;;;;1.40;0.93;;;20.70;81.80;;;;;;6182836;23;20327;-77
2023/09/25 08:25:10;;;;;;;1.65;0.95;;;20.70;82.20;;;;;;6184284;23;20079;-77
2023/09/25 08:27:39;;;;;;;1.92;0.70;;;20.60;82.10;;;;;;6184624;23;20063;-78
2023/09/25 08:30:06;;;;;;;1.77;1.00;;;20.70;82.30;;;;;;6184706;23;20335;-78
2023/09/25 08:32:31;;;;;;;2.58;0.63;;;20.60;81.60;;;;;;6183746;23;20084;-86
2023/09/25 08:34:58;;;;;;;1.92;1.05;;;20.70;81.90;;;;;;6185683;23;20067;-86
2023/09/25 08:37:24;;;;;;;6.47;1.15;;;20.70;81.50;;;;;;6186309;23;20001;-85
2023/09/25 08:39:52;;;;;;;4.63;1.10;;;20.70;81.50;;;;;;6188489;23;20431;-86
2023/09/25 08:42:21;;;;;;;3.20;0.90;;;20.80;82.10;;;;;;6187784;23;20440;-86
2023/09/25 08:44:53;;;;;;;1.65;0.80;;;20.80;82.10;;;;;;6186894;23;20080;-77
2023/09/25 08:47:20;;;;;;;2.55;1.20;;;20.80;82.50;;;;;;6185772;23;20011;-77
2023/09/25 08:49:50;;;;;;;3.22;1.00;;;20.90;83.00;;;;;;6185344;23;20078;-78
2023/09/25 08:52:20;;;;;;;3.90;1.05;;;21.00;82.80;;;;;;6185792;23;20008;-78
2023/09/25 08:54:50;;;;;;;3.72;1.15;;;21.00;82.60;;;;;;6186598;23;20008;-85
2023/09/25 08:57:16;;;;;;;;;;;21.00;81.80;;;;;;6182249;23;20011;-86
2023/09/25 08:59:46;;;;;;;1.65;1.10;;;21.00;82.10;;;;;;6187737;23;19900;-79
2023/09/25 09:02:12;;;;;;;2.20;0.93;;;21.10;82.80;;;;;;6187367;23;20009;-85
2023/09/25 09:04:41;;;;;;;2.60;1.08;;;21.10;82.50;;;;;;6186959;23;20005;-79
2023/09/25 09:07:11;;;;;;;2.95;1.00;;;21.20;82.80;;;;;;6186705;23;20055;-78
2023/09/25 09:09:38;;;;;;;2.97;1.08;;;21.20;82.30;;;;;;6186359;23;20055;-79
2023/09/25 09:12:07;;;;;;;2.45;1.30;;;21.20;82.60;;;;;;6185095;23;20001;-79
2023/09/25 09:14:43;;;;;;;1.17;0.90;;;21.20;82.10;;;;;;6185204;23;20005;-80
2023/09/25 09:17:10;;;;;;;3.03;1.10;;;21.30;82.30;;;;;;6183885;23;20084;-79
2023/09/25 09:19:49;;;;;;;2.58;0.70;;;21.30;82.60;;;;;;6186317;23;20454;-79
2023/09/25 09:22:17;;;;;;;1.17;0.90;;;21.30;82.30;;;;;;6186745;23;20424;-78
2023/09/25 09:24:44;;;;;;;3.00;1.02;;;21.30;82.70;;;;;;6184751;23;20016;-79
2023/09/25 09:27:11;;;;;;;5.57;1.10;;;21.40;83.00;;;;;;6184308;23;20336;-78
2023/09/25 09:29:39;;;;;;;4.07;1.17;;;21.40;83.00;;;;;;6185591;23;20005;-78
2023/09/25 09:32:06;;;;;;;1.58;0.95;;;21.50;82.40;;;;;;6185883;23;19997;-78
2023/09/25 09:34:33;;;;;;;2.42;1.20;;;21.50;82.50;;;;;;6185350;23;20379;-78
2023/09/25 09:36:59;;;;;;;1.60;0.80;;;21.50;82.90;;;;;;6188120;23;20028;-85
2023/09/25 09:39:36;;;;;;;2.03;1.27;;;21.60;82.80;;;;;;6186712;23;20017;-84
2023/09/25 09:42:08;;;;;;;2.08;1.02;;;21.70;82.50;;;;;;6184765;23;20131;-85
2023/09/25 09:44:37;;;;;;;1.05;0.77;;;21.80;82.80;;;;;;6186340;23;20136;-79
2023/09/25 09:47:05;;;;;;;1.20;0.70;;;21.90;83.00;;;;;;6184369;23;20016;-79
2023/09/25 09:49:35;;;;;;;2.15;0.98;;;22.00;82.50;;;;;;6184908;23;20005;-80
2023/09/25 09:52:04;;;;;;;1.88;0.82;;;22.00;82.40;;;;;;6185280;23;20005;-78
2023/09/25 09:54:34;;;;;;;1.45;0.70;;;22.00;82.40;;;;;;6184504;23;20001;-78
2023/09/25 09:57:02;;;;;;;1.10;0.85;;;22.00;81.30;;;;;;6184914;23;20024;-79
2023/09/25 09:59:28;;;;;;;2.65;1.05;;;22.10;81.20;;;;;;6184013;23;20009;-79
2023/09/25 10:01:57;;;;;;;3.08;1.25;;;22.10;79.80;;;;;;6183520;23;20005;-77
2023/09/25 10:04:24;;;;;;;1.90;0.80;;;22.20;79.50;;;;;;6185252;23;20011;-77
2023/09/25 10:06:58;;;;;;;1.17;0.77;;;22.20;78.10;;;;;;6183840;23;20009;-77
2023/09/25 10:09:26;;;;;;;0.57;0.50;;;22.30;78.20;;;;;;6180291;23;20016;-78
2023/09/25 10:11:54;;;;;;;0.90;0.57;;;22.30;78.70;;;;;;6185280;23;19997;-78
2023/09/25 10:14:22;;;;;;;1.55;0.90;;;22.40;78.60;;;;;;6182616;23;20008;-82
2023/09/25 10:16:57;;;;;;;1.17;0.65;;;22.50;76.90;;;;;;6184024;23;20009;-83
2023/09/25 10:19:32;;;;;;;0.93;0.65;;;22.60;76.50;;;;;;6184414;23;20005;-84
2023/09/25 10:22:11;;;;;;;1.27;0.73;;;22.70;77.20;;;;;;6185060;23;20016;-83
2023/09/25 10:24:38;;;;;;;2.20;0.73;;;22.80;77.20;;;;;;6185658;23;20028;-83
2023/09/25 10:27:04;;;;;;;0.85;0.50;;;22.90;76.40;;;;;;6185646;23;20596;-78
2023/09/25 10:29:30;;;;;;;1.15;0.40;;;23.10;74.00;;;;;;6185445;23;20028;-77
2023/09/25 10:31:57;;;;;;;3.08;0.85;;;23.10;73.70;;;;;;6183797;23;20416;-79
2023/09/25 10:34:25;;;;;;;1.75;1.05;;;23.20;73.40;;;;;;6185303;23;20020;-82
2023/09/25 10:36:59;;;;;;;1.83;0.68;;;23.40;74.10;;;;;;6185841;23;19997;-83
2023/09/25 10:39:27;;;;;;;1.02;0.60;;;23.70;72.70;;;;;;6185681;23;20320;-82
2023/09/25 10:42:10;;;;;;;1.05;0.40;;;24.00;71.60;;;;;;6185565;23;20469;-84
2023/09/25 10:44:36;;;;;;;1.02;0.73;;;24.20;71.20;;;;;;6185578;23;20040;-84
2023/09/25 10:47:09;;;;;;;0.82;0.55;;;24.50;70.10;;;;;;6185632;23;20079;-85
2023/09/25 10:49:36;;;;;;;0.90;0.50;;;24.90;70.10;;;;;;6184732;23;20037;-86
2023/09/25 10:52:03;;;;;;;1.85;0.50;;;25.30;67.80;;;;;;6185891;23;19997;-85
2023/09/25 10:54:30;;;;;;;1.17;0.70;;;25.50;65.50;;;;;;6185876;23;20012;-85
2023/09/25 10:56:59;;;;;;;1.33;0.50;;;25.50;62.10;;;;;;6185257;23;19997;-78
2023/09/25 10:59:27;;;;;;;0.63;0.50;;;25.40;62.00;;;;;;6185650;23;20013;-79
2023/09/25 11:01:54;;;;;;;2.33;0.60;;;25.50;64.80;;;;;;6183915;23;20404;-79
2023/09/25 11:04:19;;;;;;;0.55;0.35;;;25.80;65.00;;;;;;6185297;23;20081;-78
2023/09/25 11:06:46;;;;;;;0.60;0.50;;;26.00;64.50;;;;;;6185267;23;20420;-78
2023/09/25 11:09:17;;;;;;;4.03;0.70;;;26.40;62.30;;;;;;6185279;23;20321;-78
2023/09/25 11:11:44;;;;;;;0.65;0.40;;;26.40;58.80;;;;;;6183548;23;20002;-79
2023/09/25 11:14:10;;;;;;;0.45;0.30;;;26.40;60.60;;;;;;6181686;23;20000;-79
2023/09/25 11:16:37;;;;;;;2.40;0.60;;;26.60;62.00;;;;;;6184091;23;20020;-78
2023/09/25 11:19:15;;;;;;;1.48;0.52;;;26.80;61.00;;;;;;6182903;23;20005;-78
2023/09/25 11:21:46;;;;;;;1.20;0.50;;;27.00;59.40;;;;;;6182545;23;20017;-78
2023/09/25 11:24:12;;;;;;;1.00;0.43;;;27.10;60.00;;;;;;6184246;23;20051;-79
2023/09/25 11:26:38;;;;;;;0.95;0.40;;;27.20;58.90;;;;;;6180101;23;20008;-80
2023/09/25 11:31:52;;;;;;;1.10;0.52;;;27.60;57.80;;;;;;6208344;23;20056;-78
2023/09/25 11:34:18;;;;;;;0.90;0.50;;;27.80;58.90;;;;;;6214695;23;20063;-78
2023/09/25 11:36:44;;;;;;;2.20;0.73;;;28.10;57.90;;;;;;6214432;23;20000;-78
2023/09/25 11:39:15;;;;;;;0.68;0.47;;;28.30;53.10;;;;;;6215320;23;19992;-78
2023/09/25 11:41:40;;;;;;;1.45;0.50;;;28.40;53.40;;;;;;6209537;23;20055;-78
2023/09/25 11:44:09;;;;;;;0.93;0.50;;;28.60;54.80;;;;;;6215230;23;20024;-85
2023/09/25 11:46:35;;;;;;;0.63;0.47;;;28.90;56.00;;;;;;6214540;23;20063;-85
2023/09/25 11:49:00;;;;;;;2.03;0.73;;;29.20;55.90;;;;;;6214877;23;20005;-83
2023/09/25 11:51:26;;;;;;;1.00;0.43;;;29.40;51.30;;;;;;6214100;23;20007;-84
2023/09/25 11:53:52;;;;;;;0.77;0.65;;;29.70;54.80;;;;;;6214781;23;20004;-83
2023/09/25 11:56:18;;;;;;;2.63;0.65;;;29.90;52.10;;;;;;6214382;23;20011;-83
2023/09/25 11:58:44;;;;;;;1.52;0.52;;;29.80;49.60;;;;;;6214675;23;20071;-84
2023/09/25 12:01:10;;;;;;;0.50;0.50;;;29.80;50.90;;;;;;6213925;23;20028;-82
2023/09/25 12:03:38;;;;;;;1.23;0.60;;;29.90;50.00;;;;;;6214468;23;20001;-83
2023/09/25 12:06:08;;;;;;;0.73;0.40;;;29.70;49.10;;;;;;6213121;23;20342;-81
2023/09/25 12:08:33;;;;;;;0.83;0.50;;;29.60;50.50;;;;;;6213852;23;20326;-81
2023/09/25 12:11:00;;;;;;;1.90;0.95;;;29.80;51.70;;;;;;6214605;23;19997;-81
2023/09/25 12:13:26;;;;;;;3.03;0.95;;;30.10;49.80;;;;;;6215961;23;19997;-82
2023/09/25 12:15:51;;;;;;;1.73;0.65;;;30.00;50.30;;;;;;6216941;23;20007;-82
2023/09/25 12:18:17;;;;;;;2.90;0.60;;;30.20;49.90;;;;;;6216900;23;20019;-81
2023/09/25 12:20:43;;;;;;;1.48;0.43;;;30.20;49.20;;;;;;6211052;23;20346;-75
2023/09/25 12:23:09;;;;;;;1.15;0.50;;;30.40;51.40;;;;;;6216393;23;20304;-76
2023/09/25 12:25:35;;;;;;;0.90;0.40;;;30.50;49.30;;;;;;6215761;23;20001;-76
2023/09/25 12:28:04;;;;;;;1.17;0.60;;;30.60;50.80;;;;;;6216311;23;20009;-76
2023/09/25 12:30:30;;;;;;;1.45;0.60;;;30.70;50.30;;;;;;6215931;23;20035;-76
2023/09/25 12:32:55;;;;;;;1.20;0.40;;;30.90;50.40;;;;;;6217388;23;20005;-77
2023/09/25 12:35:21;;;;;;;0.57;0.50;;;30.90;50.50;;;;;;6216498;23;20327;-83
2023/09/25 12:37:49;;;;;;;1.05;0.70;;;30.90;48.40;;;;;;6216749;23;19997;-84
2023/09/25 12:40:15;;;;;;;3.05;0.63;;;30.80;49.40;;;;;;6216754;23;20001;-84
2023/09/25 12:42:44;;;;;;;1.05;0.70;;;30.90;50.40;;;;;;6216645;23;20369;-85
2023/09/25 12:45:11;;;;;;;0.63;0.60;;;31.00;49.70;;;;;;6215173;23;19997;-77
2023/09/25 12:47:37;;;;;;;1.13;0.55;;;31.00;50.60;;;;;;6214751;23;20068;-78
2023/09/25 12:50:03;;;;;;;1.38;0.80;;;31.10;50.80;;;;;;6216398;23;20099;-77